South Plains, Texas
Current Conditions -  °F | °C
As of 1:55 PM on Sunday 21 Dec 2014 (Local Time) from KPVW Reporting Station
Clear Clear  
Wind Chill: 60°   Ceiling: Unl
Heat Index: 60°   Visibility: 10mi
Dew Point: 28°   Wind: 15mph
Humidity: 30%   Direction: 240°WSW
Pressure: 29.7"   Gusts: 22mph
Location:  34.22°N, 101.31°W
Report Text: KPVW 211955Z AUTO 24013G19KT 10SM CLR 16/M02 A2970 RMK AO2 T01551020
Loading
Personal Weather Stations






























Interactive Weather Map New forecast layout! Learn more

10-Day Weather Forecast

Advertisements
Track Severe Weather on mobile